Time;durP1;ratioP1;P1;durP2;ratioP2;P2;SDS_P1;SDS_P2;PMS_P1;PMS_P2;Temp;Humidity;BMP_temperature;BMP_pressure;BME280_temperature;BME280_humidity;BME280_pressure;Samples;Min_cycle;Max_cycle;Signal;HPM_P1;HPM_P2
2023/10/27 00:00:29;;;;;;;;;12.00;12.00;;;;;13.14;100.00;97863.28;6278649;20;2804473;-47
2023/10/27 00:02:58;;;;;;;;;12.00;12.00;;;;;13.02;100.00;97856.41;6277772;20;2793252;-46
2023/10/27 00:05:26;;;;;;;;;13.00;11.00;;;;;13.04;100.00;97859.81;6312923;20;2791956;-48
2023/10/27 00:07:54;;;;;;;;;13.33;11.67;;;;;12.98;100.00;97857.72;6280542;20;3541924;-49
2023/10/27 00:10:23;;;;;;;;;12.00;11.00;;;;;13.02;100.00;97845.66;6315695;20;2792028;-51
2023/10/27 00:12:51;;;;;;;;;12.00;11.00;;;;;13.17;100.00;97849.47;6284923;20;2789932;-47
2023/10/27 00:15:20;;;;;;;;;13.00;12.00;;;;;13.33;100.00;97841.53;6284341;20;2796357;-48
2023/10/27 00:17:48;;;;;;;;;10.00;10.00;;;;;13.29;100.00;97842.84;6280471;20;2792034;-47
2023/10/27 00:20:16;;;;;;;;;11.00;10.00;;;;;13.38;100.00;97830.31;6285848;20;2781843;-47
2023/10/27 00:22:43;;;;;;;;;12.00;11.00;;;;;13.46;100.00;97826.81;6284907;20;2789880;-51
2023/10/27 00:25:12;;;;;;;;;13.33;10.33;;;;;13.46;100.00;97824.97;6280186;20;2786947;-49
2023/10/27 00:27:40;;;;;;;;;10.00;10.00;;;;;13.37;100.00;97824.03;6312323;20;2794042;-46
2023/10/27 00:30:10;;;;;;;;;11.00;11.00;;;;;13.48;100.00;97822.97;6278802;20;2789968;-51
2023/10/27 00:32:39;;;;;;;;;12.33;11.33;;;;;13.39;100.00;97822.03;6310453;20;2790906;-49
2023/10/27 00:35:07;;;;;;;;;12.00;11.00;;;;;13.45;100.00;97812.47;6315521;20;2782728;-49
2023/10/27 00:37:38;;;;;;;;;12.00;12.00;;;;;13.46;100.00;97816.03;6277985;20;3524348;-51
2023/10/27 00:40:08;;;;;;;;;10.33;10.33;;;;;13.37;100.00;97818.66;6307007;20;3515984;-47
2023/10/27 00:42:36;;;;;;;;;11.00;10.00;;;;;13.48;100.00;97811.31;6315462;20;2794036;-46
2023/10/27 00:45:05;;;;;;;;;10.00;10.00;;;;;13.57;100.00;97810.38;6279538;20;3518020;-46
2023/10/27 00:47:35;;;;;;;;;11.60;11.00;;;;;13.46;100.00;97811.47;6333982;20;2788827;-47
2023/10/27 00:50:05;;;;;;;;;9.67;9.67;;;;;13.57;100.00;97803.09;6279465;20;2775545;-52
2023/10/27 00:52:35;;;;;;;;;10.20;8.20;;;;;13.57;100.00;97797.72;6332002;20;2764871;-50
2023/10/27 00:55:06;;;;;;;;;7.60;7.60;;;;;13.59;100.00;97800.28;6301791;20;2751328;-47
2023/10/27 00:57:36;;;;;;;;;9.00;9.00;;;;;13.67;100.00;97805.69;6275590;20;2750409;-48
2023/10/27 01:00:07;;;;;;;;;23.50;19.50;;;;;13.46;100.00;97803.38;6275955;20;2844025;-54
2023/10/27 01:02:36;;;;;;;;;31.67;26.67;;;;;13.88;100.00;97809.84;6279403;20;3602494;-49
2023/10/27 01:05:06;;;;;;;;;36.33;30.67;;;;;13.90;100.00;97807.81;6282018;20;3601288;-48
2023/10/27 01:07:35;;;;;;;;;13.00;12.00;;;;;13.76;100.00;97804.72;6275798;20;3522136;-47
2023/10/27 01:10:04;;;;;;;;;12.00;9.00;;;;;14.21;100.00;97805.41;6310104;20;2766927;-48
2023/10/27 01:12:33;;;;;;;;;9.50;8.00;;;;;14.30;100.00;97803.56;6280102;20;2756537;-47
2023/10/27 01:15:03;;;;;;;;;9.60;7.20;;;;;14.46;100.00;97801.78;6307085;20;2756539;-47
2023/10/27 01:17:33;;;;;;;;;7.40;7.20;;;;;14.43;100.00;97793.19;6308146;20;2732598;-46
2023/10/27 01:20:01;;;;;;;;;5.00;5.00;;;;;14.50;100.00;97800.41;6317075;20;2739868;-48
2023/10/27 01:22:38;;;;;;;;;8.20;6.40;;;;;14.41;100.00;97795.19;6311528;20;2739863;-46
2023/10/27 01:25:10;;;;;;;;;6.86;6.86;;;;;14.59;100.00;97798.63;6356939;20;3446104;-47
2023/10/27 01:27:40;;;;;;;;;7.20;6.20;;;;;14.63;100.00;97794.56;6340649;20;2750303;-49
2023/10/27 01:30:11;;;;;;;;;5.80;5.80;;;;;14.57;100.00;97784.44;6308944;20;2733632;-49
2023/10/27 01:32:40;;;;;;;;;6.00;6.00;;;;;14.70;100.00;97783.97;6340329;20;2744038;-47
2023/10/27 01:35:11;;;;;;;;;6.40;6.40;;;;;14.76;100.00;97783.28;6339355;20;2746116;-48
2023/10/27 01:37:41;;;;;;;;;6.60;6.60;;;;;14.80;100.00;97778.41;6329404;20;2740894;-48
2023/10/27 01:40:12;;;;;;;;;5.14;5.14;;;;;14.71;100.00;97778.38;6358584;20;3447210;-47
2023/10/27 01:42:40;;;;;;;;;7.50;5.00;;;;;14.84;100.00;97779.75;6318155;20;2737891;-47
2023/10/27 01:45:09;;;;;;;;;6.00;6.00;;;;;14.88;100.00;97775.69;6284934;20;2741998;-53
2023/10/27 01:47:37;;;;;;;;;6.00;6.00;;;;;14.89;100.00;97770.09;6284819;20;2743072;-50
2023/10/27 01:50:06;;;;;;;;;5.50;4.00;;;;;14.91;100.00;97769.94;6287923;20;2747261;-47
2023/10/27 01:52:34;;;;;;;;;3.50;3.50;;;;;14.92;100.00;97771.63;6286773;20;2748198;-51
2023/10/27 01:55:02;;;;;;;;;4.00;4.00;;;;;14.99;100.00;97764.53;6286203;20;2745056;-46
2023/10/27 01:57:30;;;;;;;;;3.00;2.00;;;;;14.98;100.00;97764.69;6284545;20;2741953;-47
2023/10/27 01:59:58;;;;;;;;;5.50;4.00;;;;;14.94;100.00;97764.22;6284703;20;2746124;-47
2023/10/27 02:02:25;;;;;;;;;2.00;2.00;;;;;15.06;100.00;97762.84;6288514;20;2737183;-47
2023/10/27 02:04:53;;;;;;;;;3.00;3.00;;;;;15.00;100.00;97751.88;6287661;20;2737829;-49
2023/10/27 02:07:24;;;;;;;;;5.00;3.00;;;;;14.89;100.00;97750.34;6283171;20;2748424;-48
2023/10/27 02:09:52;;;;;;;;;3.50;3.50;;;;;14.87;100.00;97749.69;6287586;20;2751452;-48
2023/10/27 02:12:20;;;;;;;;;4.00;3.00;;;;;14.82;100.00;97752.88;6286603;20;2750303;-48
2023/10/27 02:14:48;;;;;;;;;4.00;4.00;;;;;14.80;100.00;97756.78;6288294;20;2737861;-49
2023/10/27 02:17:16;;;;;;;;;1.50;1.50;;;;;14.83;100.00;97760.00;6282838;20;2744147;-46
2023/10/27 02:19:44;;;;;;;;;4.50;4.50;;;;;14.70;100.00;97760.47;6284021;20;2743082;-52
2023/10/27 02:22:15;;;;;;;;;3.60;3.60;;;;;14.74;100.00;97752.03;6308602;20;2740004;-50
2023/10/27 02:24:44;;;;;;;;;6.00;6.00;;;;;14.68;100.00;97765.22;6316911;20;2740035;-47
2023/10/27 02:27:15;;;;;;;;;6.00;6.00;;;;;14.74;100.00;97752.03;6322891;20;3452370;-49
2023/10/27 02:29:46;;;;;;;;;4.57;4.57;;;;;14.76;100.00;97756.25;6356977;20;3444115;-51
2023/10/27 02:32:14;;;;;;;;;7.00;6.00;;;;;14.72;100.00;97749.53;6317887;20;2743017;-52
2023/10/27 02:34:42;;;;;;;;;5.00;5.00;;;;;14.69;100.00;97753.41;6286520;20;2741948;-48
2023/10/27 02:37:09;;;;;;;;;5.00;5.00;;;;;14.62;100.00;97752.38;6284452;20;2737810;-48
2023/10/27 02:39:37;;;;;;;;;7.50;4.50;;;;;14.57;100.00;97743.94;6284368;20;2748220;-47
2023/10/27 02:42:05;;;;;;;;;6.00;6.00;;;;;14.57;100.00;97741.22;6288636;20;2740909;-49
2023/10/27 02:44:33;;;;;;;;;3.00;3.00;;;;;14.49;100.00;97741.19;6280110;20;2735770;-47
2023/10/27 02:47:01;;;;;;;;;3.00;3.00;;;;;14.56;100.00;97742.25;6280021;20;2752592;-49
2023/10/27 02:49:29;;;;;;;;;5.50;4.00;;;;;14.62;100.00;97735.34;6283707;20;2746159;-52
2023/10/27 02:51:56;;;;;;;;;3.00;3.00;;;;;14.58;100.00;97744.78;6280283;20;2752424;-47
2023/10/27 02:54:24;;;;;;;;;9.00;4.00;;;;;14.62;100.00;97738.88;6279999;20;2754582;-53
2023/10/27 02:56:52;;;;;;;;;3.00;3.00;;;;;14.62;100.00;97744.28;6284320;20;2731635;-50
2023/10/27 02:59:20;;;;;;;;;4.00;4.00;;;;;14.67;100.00;97744.63;6283996;20;2745131;-49
2023/10/27 03:01:48;;;;;;;;;6.00;6.00;;;;;14.68;100.00;97740.91;6285533;20;2743037;-51
2023/10/27 03:04:16;;;;;;;;;4.00;4.00;;;;;14.65;100.00;97735.00;6288399;20;2746114;-48
2023/10/27 03:06:44;;;;;;;;;6.00;5.00;;;;;14.56;100.00;97739.56;6282685;20;2745249;-48
2023/10/27 03:09:12;;;;;;;;;4.50;3.00;;;;;14.59;100.00;97739.22;6287483;20;2739962;-47
2023/10/27 03:11:40;;;;;;;;;3.00;3.00;;;;;14.61;100.00;97736.34;6283159;20;2748242;-47
2023/10/27 03:14:08;;;;;;;;;5.00;3.00;;;;;14.65;100.00;97730.44;6291183;20;2631521;-53
2023/10/27 03:16:35;;;;;;;;;2.00;2.00;;;;;14.63;100.00;97724.34;6282408;20;2726328;-47
2023/10/27 03:19:03;;;;;;;;;4.00;4.00;;;;;14.62;100.00;97717.28;6284597;20;2749337;-47
2023/10/27 03:21:31;;;;;;;;;3.00;3.00;;;;;14.63;100.00;97718.94;6282208;20;2739955;-48
2023/10/27 03:23:59;;;;;;;;;3.00;3.00;;;;;14.75;100.00;97710.53;6284924;20;2739927;-49
2023/10/27 03:26:27;;;;;;;;;4.00;3.00;;;;;14.59;100.00;97711.38;6282455;20;2730483;-47
2023/10/27 03:28:55;;;;;;;;;3.00;3.00;;;;;14.74;100.00;97696.16;6283408;20;2729578;-48
2023/10/27 03:31:23;;;;;;;;;2.00;2.00;;;;;14.53;100.00;97696.66;6286270;20;2735737;-48
2023/10/27 03:33:51;;;;;;;;;2.00;2.00;;;;;14.67;100.00;97698.69;6286299;20;2748227;-48
2023/10/27 03:36:19;;;;;;;;;2.00;2.00;;;;;14.59;100.00;97697.88;6281483;20;2749036;-49
2023/10/27 03:38:47;;;;;;;;;3.50;3.00;;;;;14.62;100.00;97687.56;6283167;20;2735714;-47
2023/10/27 03:41:15;;;;;;;;;2.00;2.00;;;;;14.61;100.00;97694.00;6284461;20;2747183;-46
2023/10/27 03:43:43;;;;;;;;;2.00;2.00;;;;;14.56;100.00;97680.13;6287088;20;2727329;-49
2023/10/27 03:46:11;;;;;;;;;3.00;3.00;;;;;14.49;100.00;97679.09;6283784;20;2748315;-49
2023/10/27 03:48:39;;;;;;;;;3.00;3.00;;;;;14.56;100.00;97674.75;6285478;20;2737789;-49
2023/10/27 03:51:08;;;;;;;;;2.00;2.00;;;;;14.70;100.00;97668.66;6283376;20;2746216;-47
2023/10/27 03:53:36;;;;;;;;;2.00;2.00;;;;;14.74;100.00;97676.41;6286169;20;2745074;-47
2023/10/27 03:56:04;;;;;;;;;2.00;2.00;;;;;14.75;100.00;97662.75;6286156;20;2741905;-47
2023/10/27 03:58:32;;;;;;;;;2.00;2.00;;;;;14.50;100.00;97660.00;6283594;20;2746124;-48
2023/10/27 04:01:15;;;;;;;;;2.00;2.00;;;;;14.69;100.00;97655.28;6286443;20;2737934;-51
2023/10/27 04:03:43;;;;;;;;;1.00;1.00;;;;;14.80;100.00;97656.81;6284846;20;2735674;-49
2023/10/27 04:06:11;;;;;;;;;2.00;2.00;;;;;14.65;100.00;97645.84;6284189;20;2748253;-47
2023/10/27 04:08:39;;;;;;;;;2.00;2.00;;;;;14.67;100.00;97633.88;6282816;20;2744174;-50
2023/10/27 04:11:07;;;;;;;;;2.00;2.00;;;;;14.50;100.00;97637.56;6279473;20;2756564;-47
2023/10/27 04:13:35;;;;;;;;;2.00;2.00;;;;;14.47;100.00;97632.50;6284611;20;2752519;-51
2023/10/27 04:16:03;;;;;;;;;2.00;2.00;;;;;14.55;100.00;97629.81;6284503;20;2750240;-47
2023/10/27 04:18:32;;;;;;;;;2.00;2.00;;;;;14.66;100.00;97629.47;6279099;20;2750285;-49
2023/10/27 04:21:00;;;;;;;;;3.00;2.00;;;;;14.59;100.00;97625.78;6285132;20;2738871;-48
2023/10/27 04:23:27;;;;;;;;;5.00;3.00;;;;;14.59;100.00;97630.34;6282660;20;2756673;-49
2023/10/27 04:25:56;;;;;;;;;2.75;2.75;;;;;14.62;100.00;97613.78;6298718;20;1800403;-47
2023/10/27 04:28:24;;;;;;;;;4.00;3.00;;;;;14.48;100.00;97617.97;6314864;20;2731668;-53
2023/10/27 04:30:53;;;;;;;;;3.00;3.00;;;;;14.80;100.00;97609.03;6283824;20;2731534;-54
2023/10/27 04:33:22;;;;;;;;;4.00;4.00;;;;;14.42;100.00;97606.00;6282839;20;2754480;-54
2023/10/27 04:35:51;;;;;;;;;4.50;3.50;;;;;14.64;100.00;97606.34;6283199;20;2752590;-49
2023/10/27 04:38:18;;;;;;;;;4.00;4.00;;;;;14.59;100.00;97596.06;6277581;20;2754445;-54
2023/10/27 04:40:48;;;;;;;;;4.00;4.00;;;;;14.55;100.00;97593.88;6281906;20;2743007;-47
2023/10/27 04:43:16;;;;;;;;;5.00;5.00;;;;;14.53;100.00;97588.63;6281699;20;2747279;-47
2023/10/27 04:45:48;;;;;;;;;4.40;4.00;;;;;14.41;100.00;97584.59;6321608;20;2478554;-49
2023/10/27 04:48:15;;;;;;;;;4.50;3.00;;;;;14.42;100.00;97583.56;6314722;20;2728426;-48
2023/10/27 04:50:43;;;;;;;;;4.50;4.50;;;;;14.47;100.00;97573.09;6283178;20;2756536;-52
2023/10/27 04:53:13;;;;;;;;;4.00;4.00;;;;;14.53;100.00;97556.22;6289764;20;2751473;-48
2023/10/27 04:55:41;;;;;;;;;7.00;4.00;;;;;14.34;100.00;97562.81;6289289;20;2754509;-49
2023/10/27 04:58:09;;;;;;;;;4.00;4.00;;;;;14.39;100.00;97559.63;6290818;20;2746152;-50
2023/10/27 05:00:37;;;;;;;;;6.00;4.00;;;;;14.49;100.00;97549.47;6286436;20;2744142;-51
2023/10/27 05:03:05;;;;;;;;;3.00;3.00;;;;;14.56;100.00;97555.03;6288914;20;2746576;-47
2023/10/27 05:05:36;;;;;;;;;3.14;3.14;;;;;14.44;100.00;97541.88;6327350;20;3469064;-48
2023/10/27 05:08:05;;;;;;;;;3.50;3.50;;;;;14.38;100.00;97530.94;6318078;20;2740928;-48
2023/10/27 05:10:32;;;;;;;;;4.00;4.00;;;;;14.31;100.00;97529.94;6290241;20;2748574;-49
2023/10/27 05:13:00;;;;;;;;;5.00;3.50;;;;;14.31;100.00;97529.94;6272841;20;2756583;-50
2023/10/27 05:15:28;;;;;;;;;3.00;3.00;;;;;14.38;100.00;97515.59;6288255;20;2748212;-50
2023/10/27 05:18:04;;;;;;;;;26.00;22.33;;;;;14.40;100.00;97518.09;6283362;20;3578472;-47
2023/10/27 05:20:37;;;;;;;;;5.75;3.00;;;;;14.43;100.00;97512.38;6304606;20;1803510;-47
2023/10/27 05:23:05;;;;;;;;;6.00;6.00;;;;;14.34;100.00;97516.09;6317000;20;2734763;-50
2023/10/27 05:25:34;;;;;;;;;4.00;4.00;;;;;14.34;100.00;97516.09;6285696;20;2754468;-47
2023/10/27 05:28:02;;;;;;;;;8.00;8.00;;;;;14.33;100.00;97517.13;6287644;20;2752419;-49
2023/10/27 05:30:34;;;;;;;;;5.00;5.00;;;;;14.24;100.00;97514.44;6285654;20;2748315;-49
2023/10/27 05:33:02;;;;;;;;;5.00;5.00;;;;;14.39;100.00;97500.22;6289693;20;2747220;-46
2023/10/27 05:35:30;;;;;;;;;6.00;6.00;;;;;14.35;100.00;97496.16;6285981;20;2732618;-47
2023/10/27 05:38:00;;;;;;;;;6.00;6.00;;;;;14.28;100.00;97490.63;6309560;20;2746235;-51
2023/10/27 05:40:31;;;;;;;;;5.00;5.00;;;;;14.25;100.00;97486.41;6318457;20;2738906;-47
2023/10/27 05:43:00;;;;;;;;;3.50;3.50;;;;;14.28;100.00;97488.78;6285590;20;2748230;-51
2023/10/27 05:45:28;;;;;;;;;4.00;4.00;;;;;14.19;100.00;97479.00;6288371;20;2743109;-47
2023/10/27 05:47:58;;;;;;;;;5.80;5.00;;;;;14.34;100.00;97481.00;6310696;20;2736798;-47
2023/10/27 05:50:26;;;;;;;;;4.00;4.00;;;;;14.29;100.00;97484.19;6312484;20;2744053;-52
2023/10/27 05:52:54;;;;;;;;;4.00;4.00;;;;;14.39;100.00;97474.06;6284385;20;2746557;-49
2023/10/27 05:55:24;;;;;;;;;3.00;3.00;;;;;14.25;100.00;97466.69;6283795;20;2744014;-46
2023/10/27 05:57:52;;;;;;;;;9.00;6.00;;;;;14.33;100.00;97463.13;6286616;20;2736729;-46
2023/10/27 06:00:21;;;;;;;;;4.00;4.00;;;;;14.33;100.00;97457.72;6281356;20;2748279;-49
2023/10/27 06:02:52;;;;;;;;;5.00;4.00;;;;;14.18;100.00;97452.19;6283560;20;2735709;-46
2023/10/27 06:05:22;;;;;;;;;5.50;5.50;;;;;14.41;100.00;97460.41;6288288;20;2741047;-46
2023/10/27 06:07:52;;;;;;;;;6.20;5.20;;;;;14.30;100.00;97449.94;6306887;20;2740942;-49
2023/10/27 06:10:22;;;;;;;;;6.00;6.00;;;;;14.12;100.00;97445.63;6339624;20;2735766;-48
2023/10/27 06:12:50;;;;;;;;;6.00;6.00;;;;;14.26;100.00;97436.81;6318092;20;2737929;-48
2023/10/27 06:15:17;;;;;;;;;7.00;6.00;;;;;14.26;100.00;97439.50;6284056;20;2742963;-47
2023/10/27 06:17:45;;;;;;;;;5.00;5.00;;;;;14.20;100.00;97442.91;6286428;20;2746141;-46
2023/10/27 06:20:13;;;;;;;;;8.00;8.00;;;;;14.37;100.00;97443.69;6288125;20;2746207;-48
2023/10/27 06:22:48;;;;;;;;;5.00;5.00;;;;;14.15;100.00;97434.47;6327734;20;3461677;-45
2023/10/27 06:25:20;;;;;;;;;8.14;8.14;;;;;14.42;100.00;97427.81;6358998;20;3460856;-46
2023/10/27 06:27:52;;;;;;;;;6.00;6.00;;;;;14.25;100.00;97427.03;6354879;20;3447167;-45
2023/10/27 06:30:21;;;;;;;;;5.00;3.00;;;;;14.41;100.00;97417.19;6316261;20;2734690;-43
2023/10/27 06:32:51;;;;;;;;;7.00;7.00;;;;;14.37;100.00;97411.28;6309817;20;2737828;-49
2023/10/27 06:35:20;;;;;;;;;7.80;7.80;;;;;14.33;100.00;97404.56;6341335;20;2748302;-44
2023/10/27 06:37:48;;;;;;;;;6.00;6.00;;;;;14.26;100.00;97404.41;6317036;20;2737825;-45
2023/10/27 06:40:18;;;;;;;;;6.50;6.00;;;;;14.22;100.00;97397.69;6308633;20;2051402;-44
2023/10/27 06:42:48;;;;;;;;;10.60;7.80;;;;;14.36;100.00;97397.97;6337671;20;2756519;-47
2023/10/27 06:45:16;;;;;;;;;8.00;7.00;;;;;14.37;100.00;97383.47;6280085;20;2735699;-47
2023/10/27 06:47:44;;;;;;;;;10.50;8.00;;;;;14.45;100.00;97383.41;6284919;20;2771131;-47
2023/10/27 06:50:12;;;;;;;;;8.00;8.00;;;;;14.50;100.00;97378.34;6284618;20;2749422;-44
2023/10/27 06:52:40;;;;;;;;;11.00;10.00;;;;;14.39;100.00;97370.63;6286513;20;2783651;-44
2023/10/27 06:55:08;;;;;;;;;12.50;11.00;;;;;14.40;100.00;97367.78;6286903;20;2788963;-44
2023/10/27 06:57:37;;;;;;;;;18.00;18.00;;;;;14.36;100.00;97365.59;6279077;20;2833709;-45
2023/10/27 07:00:07;;;;;;;;;13.00;13.00;;;;;14.46;100.00;97360.81;6284294;20;2799281;-46
2023/10/27 07:02:36;;;;;;;;;17.00;15.50;;;;;14.46;100.00;97358.13;6279831;20;2825276;-45
2023/10/27 07:05:24;;;;;;;;;15.00;15.00;;;;;14.42;100.00;97360.31;6280066;20;2806388;-48
2023/10/27 07:07:54;;;;;;;;;14.00;14.00;;;;;14.56;100.00;97356.09;6280579;20;3533695;-48
2023/10/27 07:10:23;;;;;;;;;14.67;13.33;;;;;14.25;100.00;97350.63;6278256;20;3525390;-44
2023/10/27 07:12:51;;;;;;;;;15.00;15.00;;;;;14.34;100.00;97344.16;6308545;20;2483633;-47
2023/10/27 07:15:19;;;;;;;;;14.00;12.50;;;;;14.39;100.00;97339.06;6277662;20;2500275;-48
2023/10/27 07:17:48;;;;;;;;;17.50;17.50;;;;;14.28;100.00;97332.22;6278417;20;2831504;-44
2023/10/27 07:20:18;;;;;;;;;15.00;15.00;;;;;14.42;100.00;97337.88;6280871;20;2814868;-46
2023/10/27 07:22:49;;;;;;;;;22.33;21.33;;;;;14.56;100.00;97329.06;6283441;20;3578366;-47
2023/10/27 07:25:18;;;;;;;;;16.00;14.50;;;;;14.55;100.00;97330.06;6277425;20;2818999;-45
2023/10/27 07:27:47;;;;;;;;;20.00;20.00;;;;;14.46;100.00;97321.16;6281615;20;3571119;-46
2023/10/27 07:30:17;;;;;;;;;17.00;17.00;;;;;14.57;100.00;97314.53;6278065;20;2824281;-48
2023/10/27 07:32:45;;;;;;;;;20.00;18.00;;;;;14.57;100.00;97302.91;6279373;20;2834667;-45
2023/10/27 07:35:14;;;;;;;;;16.50;16.50;;;;;14.48;100.00;97319.13;6281648;20;2831548;-45
2023/10/27 07:37:43;;;;;;;;;18.00;18.00;;;;;14.77;100.00;97324.88;6278306;20;2823254;-47
2023/10/27 07:40:15;;;;;;;;;15.50;15.50;;;;;14.65;100.00;97322.59;6278963;20;2812798;-44
2023/10/27 07:42:45;;;;;;;;;18.00;17.00;;;;;14.57;100.00;97314.53;6273774;20;2835917;-44
2023/10/27 07:45:14;;;;;;;;;16.00;16.00;;;;;14.55;100.00;97308.47;6314034;20;3562787;-48
2023/10/27 07:47:41;;;;;;;;;15.50;15.50;;;;;14.50;100.00;97302.72;6307352;20;2492158;-44
2023/10/27 07:50:11;;;;;;;;;13.33;13.00;;;;;14.58;100.00;97304.56;6279492;20;3526478;-44
2023/10/27 07:52:40;;;;;;;;;17.00;13.00;;;;;14.76;100.00;97304.28;6309247;20;3541919;-46
2023/10/27 07:55:08;;;;;;;;;15.00;14.00;;;;;14.76;100.00;97297.03;6308224;20;2491912;-48
2023/10/27 07:57:37;;;;;;;;;12.67;12.67;;;;;14.85;100.00;97304.06;6305038;20;3535673;-46
2023/10/27 08:00:09;;;;;;;;;12.50;11.50;;;;;14.73;100.00;97296.56;6273928;20;2500300;-48
2023/10/27 08:02:38;;;;;;;;;12.33;11.00;;;;;14.79;100.00;97291.25;6277994;20;3519116;-47
2023/10/27 08:05:07;;;;;;;;;14.50;13.00;;;;;14.71;100.00;97292.16;6310514;20;2805671;-46
2023/10/27 08:07:37;;;;;;;;;12.67;11.00;;;;;14.70;100.00;97286.94;6276796;20;3520089;-48
2023/10/27 08:10:07;;;;;;;;;8.00;8.00;;;;;14.71;100.00;97275.94;6310314;20;3463807;-45
2023/10/27 08:12:35;;;;;;;;;9.00;9.00;;;;;14.79;100.00;97269.66;6316949;20;2746223;-47
2023/10/27 08:15:05;;;;;;;;;9.50;9.50;;;;;14.77;100.00;97262.75;6284039;20;2771261;-48
2023/10/27 08:17:35;;;;;;;;;8.33;8.00;;;;;14.90;100.00;97252.16;6276234;20;2742056;-48
2023/10/27 08:20:05;;;;;;;;;9.00;9.00;;;;;14.75;100.00;97244.03;6317616;20;2743017;-47
2023/10/27 08:22:35;;;;;;;;;7.60;7.40;;;;;14.85;100.00;97238.38;6306915;20;2752371;-48
2023/10/27 08:25:04;;;;;;;;;12.00;10.33;;;;;14.88;100.00;97235.31;6280528;20;3518008;-47
2023/10/27 08:27:32;;;;;;;;;7.00;7.00;;;;;15.09;100.00;97230.06;6323398;20;2737776;-46
2023/10/27 08:30:02;;;;;;;;;10.60;9.20;;;;;15.01;100.00;97227.44;6311452;20;2762789;-46
2023/10/27 08:32:31;;;;;;;;;8.00;8.00;;;;;15.01;100.00;97240.94;6292290;20;2754463;-46
2023/10/27 08:35:02;;;;;;;;;6.43;6.43;;;;;15.09;100.00;97232.75;6363851;20;3455631;-48
2023/10/27 08:37:32;;;;;;;;;9.20;8.40;;;;;15.05;100.00;97231.44;6343955;20;2762805;-51
2023/10/27 08:40:00;;;;;;;;;9.00;8.00;;;;;15.06;100.00;97238.53;6295054;20;2760175;-46
2023/10/27 08:42:33;;;;;;;;;7.00;7.00;;;;;14.98;100.00;97227.81;6319065;20;2742041;-48
2023/10/27 08:45:01;;;;;;;;;8.00;7.00;;;;;15.05;100.00;97231.44;6323630;20;2739856;-45
2023/10/27 08:47:31;;;;;;;;;11.33;8.67;;;;;15.08;100.00;97231.06;6288889;20;2767037;-47
2023/10/27 08:50:05;;;;;;;;;7.20;7.20;;;;;15.11;100.00;97229.84;6348911;20;2742016;-46
2023/10/27 08:52:34;;;;;;;;;7.00;7.00;;;;;15.05;100.00;97226.03;6325276;20;2471251;-45
2023/10/27 08:55:11;;;;;;;;;8.60;8.00;;;;;15.05;100.00;97226.03;6317154;20;2754476;-48
2023/10/27 08:57:41;;;;;;;;;10.80;9.00;;;;;14.88;100.00;97224.53;6312427;20;2757603;-44
2023/10/27 09:00:12;;;;;;;;;7.80;7.80;;;;;14.92;100.00;97212.31;6315427;20;2748261;-46
2023/10/27 09:02:42;;;;;;;;;9.60;8.00;;;;;14.92;100.00;97201.50;6347258;20;2749219;-45
2023/10/27 09:05:11;;;;;;;;;7.40;7.00;;;;;14.99;100.00;97202.44;6315188;20;2732557;-44
2023/10/27 09:07:39;;;;;;;;;9.00;7.00;;;;;15.07;100.00;97199.66;6326293;20;2735697;-47
2023/10/27 09:10:08;;;;;;;;;8.00;7.00;;;;;15.09;100.00;97194.94;6295430;20;2749007;-45
2023/10/27 09:12:39;;;;;;;;;7.40;6.00;;;;;15.03;100.00;97192.94;6314204;20;2742957;-44
2023/10/27 09:15:12;;;;;;;;;5.00;5.00;;;;;15.11;100.00;97183.91;6324206;20;2748182;-49
2023/10/27 09:17:58;;;;;;;;;7.00;7.00;;;;;15.22;100.00;97171.81;6291359;20;2738871;-46
2023/10/27 09:20:29;;;;;;;;;8.80;6.40;;;;;15.09;100.00;97159.78;6329224;20;2753856;-46
2023/10/27 09:23:04;;;;;;;;;5.00;5.00;;;;;15.00;100.00;97131.16;6292404;20;2732650;-45
2023/10/27 09:25:34;;;;;;;;;6.00;6.00;;;;;15.05;100.00;97134.16;6295490;20;2733593;-48
2023/10/27 09:28:05;;;;;;;;;6.00;5.00;;;;;15.07;100.00;97134.81;6290297;20;2751327;-44
2023/10/27 09:30:43;;;;;;;;;4.00;4.00;;;;;15.18;100.00;97124.56;6295162;20;2746926;-47
2023/10/27 09:33:26;;;;;;;;;7.00;5.00;;;;;15.12;100.00;97105.34;6295120;20;2737802;-44
2023/10/27 09:35:54;;;;;;;;;7.00;5.00;;;;;15.07;100.00;97088.88;6291540;20;2749311;-45
2023/10/27 09:38:24;;;;;;;;;5.60;5.60;;;;;15.24;100.00;97099.47;6312462;20;2748340;-48
2023/10/27 09:40:57;;;;;;;;;6.57;5.86;;;;;15.27;100.00;97093.69;6360392;20;3462793;-50
2023/10/27 09:43:35;;;;;;;;;5.43;5.43;;;;;15.12;100.00;97081.03;6355328;20;3461758;-50
2023/10/27 09:46:06;;;;;;;;;5.00;4.50;;;;;15.13;100.00;97077.28;6313658;20;2754421;-48
2023/10/27 09:48:36;;;;;;;;;3.00;3.00;;;;;15.34;100.00;97079.22;6286627;20;2746169;-47
2023/10/27 09:51:12;;;;;;;;;6.50;5.00;;;;;15.49;100.00;97075.69;6285639;20;2745104;-47
2023/10/27 09:53:47;;;;;;;;;5.40;4.40;;;;;15.42;100.00;97072.06;6309754;20;2754508;-47
2023/10/27 09:56:17;;;;;;;;;8.00;6.60;;;;;15.50;100.00;97080.88;6336853;20;2748199;-48
2023/10/27 09:58:49;;;;;;;;;7.86;7.00;;;;;15.54;100.00;97074.06;6356151;20;3450325;-52
2023/10/27 10:01:17;;;;;;;;;7.00;6.00;;;;;15.51;100.00;97050.13;6311228;20;2735682;-48
2023/10/27 10:03:45;;;;;;;;;10.00;8.00;;;;;15.65;100.00;97036.75;6283351;20;2777493;-47
2023/10/27 10:06:23;;;;;;;;;6.00;6.00;;;;;15.61;100.00;97036.28;6286712;20;2744480;-47
2023/10/27 10:09:14;;;;;;;;;5.80;5.80;;;;;15.71;100.00;97026.00;6310379;20;2730545;-47
2023/10/27 10:11:47;;;;;;;;;7.80;7.80;;;;;15.73;100.00;97001.47;6339714;20;2748295;-45
2023/10/27 10:14:39;;;;;;;;;6.40;5.40;;;;;15.75;100.00;97002.97;6341197;20;2743000;-50
2023/10/27 10:17:08;;;;;;;;;8.50;6.00;;;;;15.93;100.00;96997.09;6310462;20;2742972;-45
2023/10/27 10:19:55;;;;;;;;;6.00;4.50;;;;;16.16;100.00;96993.31;6288333;20;2738861;-45
2023/10/27 10:22:40;;;;;;;;;5.00;5.00;;;;;16.13;100.00;96964.78;6308426;20;2738845;-47
2023/10/27 10:25:23;;;;;;;;;6.00;5.00;;;;;16.07;100.00;96970.16;6316723;20;2748172;-48
2023/10/27 10:28:16;;;;;;;;;5.50;5.50;;;;;16.22;100.00;96963.59;6287320;20;2729452;-47
2023/10/27 10:30:47;;;;;;;;;6.00;5.00;;;;;16.08;100.00;96959.09;6284863;20;2747280;-48
2023/10/27 10:33:28;;;;;;;;;3.00;3.00;;;;;16.14;100.00;96966.47;6305497;20;2731526;-45
2023/10/27 10:36:22;;;;;;;;;5.80;5.00;;;;;16.11;100.00;96949.75;6336098;20;2737902;-46
2023/10/27 10:39:04;;;;;;;;;6.00;6.00;;;;;16.08;100.00;96955.56;6355998;20;3455522;-51
2023/10/27 10:41:58;;;;;;;;;8.40;6.60;;;;;16.12;100.00;96955.00;6338917;20;2748232;-49
2023/10/27 10:44:28;;;;;;;;;4.50;4.50;;;;;16.08;100.00;96928.50;6314647;20;2754533;-51
2023/10/27 10:46:56;;;;;;;;;8.00;6.00;;;;;16.28;100.00;96940.31;6285525;20;2735725;-47
2023/10/27 10:49:30;;;;;;;;;9.00;7.00;;;;;16.09;100.00;96930.16;6288702;20;2632655;-47
2023/10/27 10:52:01;;;;;;;;;4.00;4.00;;;;;16.00;100.00;96926.78;6287774;20;2739890;-48
2023/10/27 10:54:34;;;;;;;;;5.80;5.00;;;;;15.99;100.00;96925.94;6305814;20;2743051;-48
2023/10/27 10:57:08;;;;;;;;;5.40;5.40;;;;;16.13;100.00;96931.47;6335113;20;2738964;-48
2023/10/27 10:59:38;;;;;;;;;6.60;6.60;;;;;16.02;100.00;96913.91;6336254;20;2744035;-51
2023/10/27 11:02:08;;;;;;;;;7.20;7.20;;;;;16.02;100.00;96912.03;6336558;20;2736887;-47
2023/10/27 11:04:38;;;;;;;;;7.80;7.80;;;;;16.14;100.00;96911.47;6340273;20;2739878;-45
2023/10/27 11:07:18;;;;;;;;;11.00;8.33;;;;;16.28;100.00;96902.41;6310502;20;2762270;-48
2023/10/27 11:09:48;;;;;;;;;7.00;6.00;;;;;16.29;100.00;96893.25;6339700;20;2742953;-47
2023/10/27 11:12:28;;;;;;;;;6.00;6.00;;;;;16.35;100.00;96888.88;6304292;20;2738836;-45
2023/10/27 11:14:57;;;;;;;;;5.40;5.00;;;;;16.33;100.00;96899.94;6338346;20;2738789;-46
2023/10/27 11:17:49;;;;;;;;;7.00;5.40;;;;;16.39;100.00;96888.31;6336634;20;2741858;-47
2023/10/27 11:20:39;;;;;;;;;4.60;4.40;;;;;16.58;100.00;96880.47;6338013;20;2746206;-49